sensor_id;sensor_type;location;lat;lon;timestamp;P1;durP1;ratioP1;P2;durP2;ratioP2
68653;SDS011;55636;51.108;13.622;2022-07-06T00:00:17;2.72;;;2.33;;
68653;SDS011;55636;51.108;13.622;2022-07-06T00:01:20;2.83;;;2.50;;
68653;SDS011;55636;51.108;13.622;2022-07-06T00:02:23;2.90;;;2.40;;
68653;SDS011;55636;51.108;13.622;2022-07-06T00:03:25;3.28;;;2.58;;
68653;SDS011;55636;51.108;13.622;2022-07-06T00:04:27;3.47;;;2.80;;
68653;SDS011;55636;51.108;13.622;2022-07-06T00:05:30;2.92;;;2.60;;
68653;SDS011;55636;51.108;13.622;2022-07-06T00:06:32;2.53;;;2.33;;
68653;SDS011;55636;51.108;13.622;2022-07-06T00:07:34;3.47;;;2.90;;
68653;SDS011;55636;51.108;13.622;2022-07-06T00:08:37;3.30;;;2.47;;
68653;SDS011;55636;51.108;13.622;2022-07-06T00:09:40;6.43;;;2.83;;
68653;SDS011;55636;51.108;13.622;2022-07-06T00:10:43;3.28;;;2.63;;
68653;SDS011;55636;51.108;13.622;2022-07-06T00:11:45;4.43;;;2.80;;
68653;SDS011;55636;51.108;13.622;2022-07-06T00:12:47;6.22;;;2.60;;
68653;SDS011;55636;51.108;13.622;2022-07-06T00:13:51;3.13;;;2.50;;
68653;SDS011;55636;51.108;13.622;2022-07-06T00:14:54;3.97;;;2.70;;
68653;SDS011;55636;51.108;13.622;2022-07-06T00:15:56;5.47;;;2.85;;
68653;SDS011;55636;51.108;13.622;2022-07-06T00:16:58;3.33;;;2.60;;
68653;SDS011;55636;51.108;13.622;2022-07-06T00:18:01;3.20;;;2.70;;
68653;SDS011;55636;51.108;13.622;2022-07-06T00:19:03;3.13;;;2.60;;
68653;SDS011;55636;51.108;13.622;2022-07-06T00:20:06;4.18;;;2.67;;
68653;SDS011;55636;51.108;13.622;2022-07-06T00:21:08;3.42;;;2.58;;
68653;SDS011;55636;51.108;13.622;2022-07-06T00:22:11;3.03;;;2.70;;
68653;SDS011;55636;51.108;13.622;2022-07-06T00:23:13;4.07;;;2.90;;
68653;SDS011;55636;51.108;13.622;2022-07-06T00:24:16;4.10;;;2.63;;
68653;SDS011;55636;51.108;13.622;2022-07-06T00:25:20;2.45;;;2.25;;
68653;SDS011;55636;51.108;13.622;2022-07-06T00:26:22;2.65;;;2.45;;
68653;SDS011;55636;51.108;13.622;2022-07-06T00:27:24;2.78;;;2.38;;
68653;SDS011;55636;51.108;13.622;2022-07-06T00:28:29;7.68;;;2.47;;
68653;SDS011;55636;51.108;13.622;2022-07-06T00:29:31;2.92;;;2.20;;
68653;SDS011;55636;51.108;13.622;2022-07-06T00:30:33;2.80;;;2.33;;
68653;SDS011;55636;51.108;13.622;2022-07-06T00:31:35;4.35;;;2.40;;
68653;SDS011;55636;51.108;13.622;2022-07-06T00:32:38;3.47;;;2.30;;
68653;SDS011;55636;51.108;13.622;2022-07-06T00:33:40;4.68;;;2.42;;
68653;SDS011;55636;51.108;13.622;2022-07-06T00:34:42;2.35;;;2.10;;
68653;SDS011;55636;51.108;13.622;2022-07-06T00:35:44;3.20;;;2.28;;
68653;SDS011;55636;51.108;13.622;2022-07-06T00:36:47;2.58;;;2.20;;
68653;SDS011;55636;51.108;13.622;2022-07-06T00:37:50;3.15;;;2.40;;
68653;SDS011;55636;51.108;13.622;2022-07-06T00:38:52;2.78;;;2.10;;
68653;SDS011;55636;51.108;13.622;2022-07-06T00:39:55;3.95;;;2.33;;
68653;SDS011;55636;51.108;13.622;2022-07-06T00:40:57;2.95;;;2.13;;
68653;SDS011;55636;51.108;13.622;2022-07-06T00:41:59;4.38;;;2.63;;
68653;SDS011;55636;51.108;13.622;2022-07-06T00:43:01;3.13;;;2.67;;
68653;SDS011;55636;51.108;13.622;2022-07-06T00:44:06;6.13;;;2.90;;
68653;SDS011;55636;51.108;13.622;2022-07-06T00:45:11;3.38;;;2.30;;
68653;SDS011;55636;51.108;13.622;2022-07-06T00:46:14;3.92;;;2.45;;
68653;SDS011;55636;51.108;13.622;2022-07-06T00:47:16;3.03;;;2.53;;
68653;SDS011;55636;51.108;13.622;2022-07-06T00:48:20;3.47;;;2.67;;
68653;SDS011;55636;51.108;13.622;2022-07-06T00:49:23;3.63;;;2.65;;
68653;SDS011;55636;51.108;13.622;2022-07-06T00:50:44;4.60;;;2.60;;
68653;SDS011;55636;51.108;13.622;2022-07-06T00:51:46;2.72;;;2.53;;
68653;SDS011;55636;51.108;13.622;2022-07-06T00:54:00;4.38;;;2.78;;
68653;SDS011;55636;51.108;13.622;2022-07-06T00:55:06;3.38;;;2.70;;
68653;SDS011;55636;51.108;13.622;2022-07-06T00:56:09;4.82;;;2.47;;
68653;SDS011;55636;51.108;13.622;2022-07-06T00:57:11;2.95;;;2.65;;
68653;SDS011;55636;51.108;13.622;2022-07-06T00:58:14;4.07;;;2.50;;
68653;SDS011;55636;51.108;13.622;2022-07-06T00:59:16;2.50;;;2.30;;
68653;SDS011;55636;51.108;13.622;2022-07-06T01:00:19;2.83;;;2.45;;
68653;SDS011;55636;51.108;13.622;2022-07-06T01:01:23;3.17;;;2.80;;
68653;SDS011;55636;51.108;13.622;2022-07-06T01:02:26;2.50;;;2.30;;
68653;SDS011;55636;51.108;13.622;2022-07-06T01:03:28;5.45;;;2.97;;
68653;SDS011;55636;51.108;13.622;2022-07-06T01:04:30;3.00;;;2.75;;
68653;SDS011;55636;51.108;13.622;2022-07-06T01:05:34;2.60;;;2.38;;
68653;SDS011;55636;51.108;13.622;2022-07-06T01:06:36;3.25;;;2.50;;
68653;SDS011;55636;51.108;13.622;2022-07-06T01:07:40;2.83;;;2.60;;
68653;SDS011;55636;51.108;13.622;2022-07-06T01:08:43;3.03;;;2.70;;
68653;SDS011;55636;51.108;13.622;2022-07-06T01:09:46;2.80;;;2.60;;
68653;SDS011;55636;51.108;13.622;2022-07-06T01:10:48;3.00;;;2.40;;
68653;SDS011;55636;51.108;13.622;2022-07-06T01:11:51;4.13;;;2.53;;
68653;SDS011;55636;51.108;13.622;2022-07-06T01:12:54;3.22;;;2.70;;
68653;SDS011;55636;51.108;13.622;2022-07-06T01:14:00;2.42;;;2.22;;
68653;SDS011;55636;51.108;13.622;2022-07-06T01:15:03;3.47;;;2.63;;
68653;SDS011;55636;51.108;13.622;2022-07-06T01:16:06;2.53;;;2.33;;
68653;SDS011;55636;51.108;13.622;2022-07-06T01:17:09;2.90;;;2.60;;
68653;SDS011;55636;51.108;13.622;2022-07-06T01:18:12;2.88;;;2.58;;
68653;SDS011;55636;51.108;13.622;2022-07-06T01:19:15;2.53;;;2.33;;
68653;SDS011;55636;51.108;13.622;2022-07-06T01:20:20;3.42;;;2.67;;
68653;SDS011;55636;51.108;13.622;2022-07-06T01:21:42;4.22;;;2.83;;
68653;SDS011;55636;51.108;13.622;2022-07-06T01:22:44;3.10;;;2.33;;
68653;SDS011;55636;51.108;13.622;2022-07-06T01:23:48;2.83;;;2.63;;
68653;SDS011;55636;51.108;13.622;2022-07-06T01:24:53;2.70;;;2.50;;
68653;SDS011;55636;51.108;13.622;2022-07-06T01:25:57;2.65;;;2.45;;
68653;SDS011;55636;51.108;13.622;2022-07-06T01:26:59;3.45;;;2.70;;
68653;SDS011;55636;51.108;13.622;2022-07-06T01:28:03;3.40;;;2.80;;
68653;SDS011;55636;51.108;13.622;2022-07-06T01:29:06;3.90;;;2.75;;
68653;SDS011;55636;51.108;13.622;2022-07-06T01:30:09;3.00;;;2.25;;
68653;SDS011;55636;51.108;13.622;2022-07-06T01:31:18;3.42;;;2.40;;
68653;SDS011;55636;51.108;13.622;2022-07-06T01:32:22;2.92;;;2.60;;
68653;SDS011;55636;51.108;13.622;2022-07-06T01:33:24;4.50;;;2.70;;
68653;SDS011;55636;51.108;13.622;2022-07-06T01:34:27;2.78;;;2.55;;
68653;SDS011;55636;51.108;13.622;2022-07-06T01:35:29;3.15;;;2.53;;
68653;SDS011;55636;51.108;13.622;2022-07-06T01:36:33;2.97;;;2.50;;
68653;SDS011;55636;51.108;13.622;2022-07-06T01:37:36;3.00;;;2.70;;
68653;SDS011;55636;51.108;13.622;2022-07-06T01:38:45;3.28;;;2.40;;
68653;SDS011;55636;51.108;13.622;2022-07-06T01:39:50;3.15;;;2.40;;
68653;SDS011;55636;51.108;13.622;2022-07-06T01:40:53;2.38;;;2.17;;
68653;SDS011;55636;51.108;13.622;2022-07-06T01:41:55;3.10;;;2.80;;
68653;SDS011;55636;51.108;13.622;2022-07-06T01:42:57;2.70;;;2.40;;
68653;SDS011;55636;51.108;13.622;2022-07-06T01:43:59;2.72;;;2.45;;
68653;SDS011;55636;51.108;13.622;2022-07-06T01:45:03;2.58;;;2.38;;
68653;SDS011;55636;51.108;13.622;2022-07-06T01:46:06;2.40;;;2.20;;
68653;SDS011;55636;51.108;13.622;2022-07-06T01:47:08;2.75;;;2.42;;
68653;SDS011;55636;51.108;13.622;2022-07-06T01:48:11;3.00;;;2.40;;
68653;SDS011;55636;51.108;13.622;2022-07-06T01:49:13;3.50;;;2.20;;
68653;SDS011;55636;51.108;13.622;2022-07-06T01:50:15;4.20;;;2.67;;
68653;SDS011;55636;51.108;13.622;2022-07-06T01:51:20;3.22;;;2.55;;
68653;SDS011;55636;51.108;13.622;2022-07-06T01:52:22;3.15;;;2.63;;
68653;SDS011;55636;51.108;13.622;2022-07-06T01:53:24;2.65;;;2.45;;
68653;SDS011;55636;51.108;13.622;2022-07-06T01:54:26;3.35;;;2.17;;
68653;SDS011;55636;51.108;13.622;2022-07-06T01:55:29;4.85;;;2.50;;
68653;SDS011;55636;51.108;13.622;2022-07-06T01:56:32;2.92;;;2.25;;
68653;SDS011;55636;51.108;13.622;2022-07-06T01:57:37;3.10;;;2.50;;
68653;SDS011;55636;51.108;13.622;2022-07-06T01:58:40;2.58;;;2.38;;
68653;SDS011;55636;51.108;13.622;2022-07-06T01:59:43;3.00;;;2.70;;
68653;SDS011;55636;51.108;13.622;2022-07-06T02:00:47;2.85;;;2.60;;
68653;SDS011;55636;51.108;13.622;2022-07-06T02:01:49;2.67;;;2.47;;
68653;SDS011;55636;51.108;13.622;2022-07-06T02:02:52;4.60;;;2.97;;
68653;SDS011;55636;51.108;13.622;2022-07-06T02:03:54;2.65;;;2.42;;
68653;SDS011;55636;51.108;13.622;2022-07-06T02:04:56;4.53;;;2.72;;
68653;SDS011;55636;51.108;13.622;2022-07-06T02:05:58;3.78;;;2.78;;
68653;SDS011;55636;51.108;13.622;2022-07-06T02:07:01;3.03;;;2.70;;
68653;SDS011;55636;51.108;13.622;2022-07-06T02:08:03;4.10;;;3.03;;
68653;SDS011;55636;51.108;13.622;2022-07-06T02:09:07;2.80;;;2.60;;
68653;SDS011;55636;51.108;13.622;2022-07-06T02:10:09;2.58;;;2.33;;
68653;SDS011;55636;51.108;13.622;2022-07-06T02:11:11;4.25;;;2.72;;
68653;SDS011;55636;51.108;13.622;2022-07-06T02:12:15;3.20;;;2.60;;
68653;SDS011;55636;51.108;13.622;2022-07-06T02:13:17;3.70;;;2.90;;
68653;SDS011;55636;51.108;13.622;2022-07-06T02:14:20;3.35;;;2.85;;
68653;SDS011;55636;51.108;13.622;2022-07-06T02:15:22;3.13;;;2.83;;
68653;SDS011;55636;51.108;13.622;2022-07-06T02:16:24;2.80;;;2.60;;
68653;SDS011;55636;51.108;13.622;2022-07-06T02:17:28;4.53;;;2.90;;
68653;SDS011;55636;51.108;13.622;2022-07-06T02:18:30;2.70;;;2.50;;
68653;SDS011;55636;51.108;13.622;2022-07-06T02:19:33;5.22;;;2.67;;
68653;SDS011;55636;51.108;13.622;2022-07-06T02:20:35;3.00;;;2.60;;
68653;SDS011;55636;51.108;13.622;2022-07-06T02:21:39;3.42;;;2.70;;
68653;SDS011;55636;51.108;13.622;2022-07-06T02:22:42;2.95;;;2.50;;
68653;SDS011;55636;51.108;13.622;2022-07-06T02:23:44;2.92;;;2.63;;
68653;SDS011;55636;51.108;13.622;2022-07-06T02:24:46;3.70;;;2.80;;
68653;SDS011;55636;51.108;13.622;2022-07-06T02:25:49;3.92;;;2.67;;
68653;SDS011;55636;51.108;13.622;2022-07-06T02:26:52;3.00;;;2.70;;
68653;SDS011;55636;51.108;13.622;2022-07-06T02:27:54;4.32;;;2.75;;
68653;SDS011;55636;51.108;13.622;2022-07-06T02:28:57;2.97;;;2.70;;
68653;SDS011;55636;51.108;13.622;2022-07-06T02:30:00;2.80;;;2.53;;
68653;SDS011;55636;51.108;13.622;2022-07-06T02:31:05;2.85;;;2.65;;
68653;SDS011;55636;51.108;13.622;2022-07-06T02:32:07;3.20;;;2.88;;
68653;SDS011;55636;51.108;13.622;2022-07-06T02:33:10;3.92;;;3.17;;
68653;SDS011;55636;51.108;13.622;2022-07-06T02:34:12;3.38;;;2.88;;
68653;SDS011;55636;51.108;13.622;2022-07-06T02:35:14;3.42;;;2.70;;
68653;SDS011;55636;51.108;13.622;2022-07-06T02:36:17;4.45;;;3.03;;
68653;SDS011;55636;51.108;13.622;2022-07-06T02:37:19;3.15;;;2.85;;
68653;SDS011;55636;51.108;13.622;2022-07-06T02:38:22;3.53;;;3.10;;
68653;SDS011;55636;51.108;13.622;2022-07-06T02:39:25;11.48;;;3.60;;
68653;SDS011;55636;51.108;13.622;2022-07-06T02:40:27;3.25;;;2.90;;
68653;SDS011;55636;51.108;13.622;2022-07-06T02:41:30;2.90;;;2.70;;
68653;SDS011;55636;51.108;13.622;2022-07-06T02:42:32;3.33;;;3.03;;
68653;SDS011;55636;51.108;13.622;2022-07-06T02:43:37;4.20;;;3.05;;
68653;SDS011;55636;51.108;13.622;2022-07-06T02:44:40;3.50;;;2.97;;
68653;SDS011;55636;51.108;13.622;2022-07-06T02:45:43;3.33;;;3.03;;
68653;SDS011;55636;51.108;13.622;2022-07-06T02:46:46;4.50;;;2.90;;
68653;SDS011;55636;51.108;13.622;2022-07-06T02:47:48;4.30;;;2.90;;
68653;SDS011;55636;51.108;13.622;2022-07-06T02:48:51;4.22;;;3.10;;
68653;SDS011;55636;51.108;13.622;2022-07-06T02:49:53;3.42;;;3.05;;
68653;SDS011;55636;51.108;13.622;2022-07-06T02:50:56;4.45;;;2.90;;
68653;SDS011;55636;51.108;13.622;2022-07-06T02:52:01;2.70;;;2.50;;
68653;SDS011;55636;51.108;13.622;2022-07-06T02:53:05;3.05;;;2.85;;
68653;SDS011;55636;51.108;13.622;2022-07-06T02:54:07;3.40;;;2.90;;
68653;SDS011;55636;51.108;13.622;2022-07-06T02:55:10;3.00;;;2.80;;
68653;SDS011;55636;51.108;13.622;2022-07-06T02:56:12;4.07;;;3.08;;
68653;SDS011;55636;51.108;13.622;2022-07-06T02:57:16;4.63;;;2.80;;
68653;SDS011;55636;51.108;13.622;2022-07-06T02:58:19;3.30;;;3.00;;
68653;SDS011;55636;51.108;13.622;2022-07-06T02:59:22;4.03;;;3.20;;
68653;SDS011;55636;51.108;13.622;2022-07-06T03:00:24;3.35;;;3.00;;
68653;SDS011;55636;51.108;13.622;2022-07-06T03:01:27;3.95;;;2.88;;
68653;SDS011;55636;51.108;13.622;2022-07-06T03:02:29;3.17;;;2.88;;
68653;SDS011;55636;51.108;13.622;2022-07-06T03:03:32;3.78;;;3.38;;
68653;SDS011;55636;51.108;13.622;2022-07-06T03:04:35;5.82;;;2.90;;
68653;SDS011;55636;51.108;13.622;2022-07-06T03:05:37;3.38;;;3.08;;
68653;SDS011;55636;51.108;13.622;2022-07-06T03:06:40;3.40;;;3.10;;
68653;SDS011;55636;51.108;13.622;2022-07-06T03:07:42;3.15;;;2.83;;
68653;SDS011;55636;51.108;13.622;2022-07-06T03:08:44;4.50;;;3.13;;
68653;SDS011;55636;51.108;13.622;2022-07-06T03:09:47;4.68;;;2.90;;
68653;SDS011;55636;51.108;13.622;2022-07-06T03:10:49;2.97;;;2.78;;
68653;SDS011;55636;51.108;13.622;2022-07-06T03:11:53;2.97;;;2.65;;
68653;SDS011;55636;51.108;13.622;2022-07-06T03:12:58;4.57;;;3.17;;
68653;SDS011;55636;51.108;13.622;2022-07-06T03:14:04;4.18;;;2.92;;
68653;SDS011;55636;51.108;13.622;2022-07-06T03:15:11;3.17;;;2.88;;
68653;SDS011;55636;51.108;13.622;2022-07-06T03:16:17;3.15;;;2.92;;
68653;SDS011;55636;51.108;13.622;2022-07-06T03:17:20;3.47;;;2.92;;
68653;SDS011;55636;51.108;13.622;2022-07-06T03:18:23;4.63;;;3.08;;
68653;SDS011;55636;51.108;13.622;2022-07-06T03:19:27;3.70;;;3.40;;
68653;SDS011;55636;51.108;13.622;2022-07-06T03:20:30;4.55;;;3.10;;
68653;SDS011;55636;51.108;13.622;2022-07-06T03:21:33;4.70;;;3.00;;
68653;SDS011;55636;51.108;13.622;2022-07-06T03:22:37;4.55;;;2.97;;
68653;SDS011;55636;51.108;13.622;2022-07-06T03:23:39;4.97;;;3.08;;
68653;SDS011;55636;51.108;13.622;2022-07-06T03:24:42;3.30;;;3.00;;
68653;SDS011;55636;51.108;13.622;2022-07-06T03:25:44;3.20;;;3.00;;
68653;SDS011;55636;51.108;13.622;2022-07-06T03:26:47;3.30;;;3.00;;
68653;SDS011;55636;51.108;13.622;2022-07-06T03:27:50;3.65;;;3.35;;
68653;SDS011;55636;51.108;13.622;2022-07-06T03:28:53;3.78;;;3.13;;
68653;SDS011;55636;51.108;13.622;2022-07-06T03:29:55;3.45;;;2.90;;
68653;SDS011;55636;51.108;13.622;2022-07-06T03:30:58;3.20;;;2.90;;
68653;SDS011;55636;51.108;13.622;2022-07-06T03:32:00;3.33;;;3.03;;
68653;SDS011;55636;51.108;13.622;2022-07-06T03:33:03;3.65;;;3.35;;
68653;SDS011;55636;51.108;13.622;2022-07-06T03:34:07;4.95;;;3.53;;
68653;SDS011;55636;51.108;13.622;2022-07-06T03:35:10;3.60;;;3.25;;
68653;SDS011;55636;51.108;13.622;2022-07-06T03:36:12;5.13;;;3.72;;
68653;SDS011;55636;51.108;13.622;2022-07-06T03:37:14;3.85;;;2.92;;
68653;SDS011;55636;51.108;13.622;2022-07-06T03:38:17;4.57;;;3.35;;
68653;SDS011;55636;51.108;13.622;2022-07-06T03:39:19;4.72;;;3.22;;
68653;SDS011;55636;51.108;13.622;2022-07-06T03:40:22;4.68;;;3.50;;
68653;SDS011;55636;51.108;13.622;2022-07-06T03:41:26;3.78;;;3.38;;
68653;SDS011;55636;51.108;13.622;2022-07-06T03:42:28;3.70;;;3.20;;
68653;SDS011;55636;51.108;13.622;2022-07-06T03:43:31;5.07;;;3.20;;
68653;SDS011;55636;51.108;13.622;2022-07-06T03:44:33;5.00;;;3.35;;
68653;SDS011;55636;51.108;13.622;2022-07-06T03:45:36;3.83;;;2.90;;
68653;SDS011;55636;51.108;13.622;2022-07-06T03:46:40;2.92;;;2.63;;
68653;SDS011;55636;51.108;13.622;2022-07-06T03:47:42;3.92;;;3.28;;
68653;SDS011;55636;51.108;13.622;2022-07-06T03:48:45;3.83;;;3.05;;
68653;SDS011;55636;51.108;13.622;2022-07-06T03:49:47;3.63;;;2.97;;
68653;SDS011;55636;51.108;13.622;2022-07-06T03:50:50;3.53;;;2.90;;
68653;SDS011;55636;51.108;13.622;2022-07-06T03:51:53;3.22;;;2.92;;
68653;SDS011;55636;51.108;13.622;2022-07-06T03:52:57;4.82;;;2.80;;
68653;SDS011;55636;51.108;13.622;2022-07-06T03:53:59;3.45;;;2.70;;
68653;SDS011;55636;51.108;13.622;2022-07-06T03:55:01;4.07;;;3.00;;
68653;SDS011;55636;51.108;13.622;2022-07-06T03:56:05;4.60;;;2.97;;
68653;SDS011;55636;51.108;13.622;2022-07-06T03:57:26;4.35;;;2.90;;
68653;SDS011;55636;51.108;13.622;2022-07-06T03:58:31;4.80;;;3.10;;
68653;SDS011;55636;51.108;13.622;2022-07-06T03:59:34;3.30;;;3.00;;
68653;SDS011;55636;51.108;13.622;2022-07-06T04:00:36;4.25;;;3.20;;
68653;SDS011;55636;51.108;13.622;2022-07-06T04:01:42;3.97;;;3.10;;
68653;SDS011;55636;51.108;13.622;2022-07-06T04:02:47;4.32;;;2.95;;
68653;SDS011;55636;51.108;13.622;2022-07-06T04:03:55;3.58;;;3.00;;
68653;SDS011;55636;51.108;13.622;2022-07-06T04:04:57;3.55;;;3.13;;
68653;SDS011;55636;51.108;13.622;2022-07-06T04:06:00;3.85;;;3.22;;
68653;SDS011;55636;51.108;13.622;2022-07-06T04:07:02;3.90;;;3.35;;
68653;SDS011;55636;51.108;13.622;2022-07-06T04:08:06;4.35;;;3.00;;
68653;SDS011;55636;51.108;13.622;2022-07-06T04:09:13;5.07;;;3.17;;
68653;SDS011;55636;51.108;13.622;2022-07-06T04:10:16;3.75;;;3.40;;
68653;SDS011;55636;51.108;13.622;2022-07-06T04:11:20;5.50;;;3.60;;
68653;SDS011;55636;51.108;13.622;2022-07-06T04:12:22;3.30;;;3.00;;
68653;SDS011;55636;51.108;13.622;2022-07-06T04:13:27;3.47;;;3.08;;
68653;SDS011;55636;51.108;13.622;2022-07-06T04:14:29;3.63;;;3.10;;
68653;SDS011;55636;51.108;13.622;2022-07-06T04:15:31;4.85;;;3.08;;
68653;SDS011;55636;51.108;13.622;2022-07-06T04:16:34;3.20;;;2.90;;
68653;SDS011;55636;51.108;13.622;2022-07-06T04:17:38;4.03;;;3.13;;
68653;SDS011;55636;51.108;13.622;2022-07-06T04:19:02;3.30;;;3.00;;
68653;SDS011;55636;51.108;13.622;2022-07-06T04:20:04;4.28;;;3.10;;
68653;SDS011;55636;51.108;13.622;2022-07-06T04:21:07;3.47;;;3.13;;
68653;SDS011;55636;51.108;13.622;2022-07-06T04:22:11;3.55;;;2.83;;
68653;SDS011;55636;51.108;13.622;2022-07-06T04:23:13;4.30;;;3.05;;
68653;SDS011;55636;51.108;13.622;2022-07-06T04:24:15;3.30;;;3.00;;
68653;SDS011;55636;51.108;13.622;2022-07-06T04:25:18;4.32;;;3.10;;
68653;SDS011;55636;51.108;13.622;2022-07-06T04:26:22;3.17;;;2.88;;
68653;SDS011;55636;51.108;13.622;2022-07-06T04:27:25;3.72;;;3.20;;
68653;SDS011;55636;51.108;13.622;2022-07-06T04:28:27;3.63;;;2.92;;
68653;SDS011;55636;51.108;13.622;2022-07-06T04:29:30;5.32;;;3.25;;
68653;SDS011;55636;51.108;13.622;2022-07-06T04:30:32;3.30;;;3.00;;
68653;SDS011;55636;51.108;13.622;2022-07-06T04:31:36;3.15;;;2.92;;
68653;SDS011;55636;51.108;13.622;2022-07-06T04:32:39;3.17;;;2.90;;
68653;SDS011;55636;51.108;13.622;2022-07-06T04:33:41;3.67;;;2.88;;
68653;SDS011;55636;51.108;13.622;2022-07-06T04:34:45;3.47;;;3.10;;
68653;SDS011;55636;51.108;13.622;2022-07-06T04:35:47;3.10;;;2.80;;
68653;SDS011;55636;51.108;13.622;2022-07-06T04:36:50;4.15;;;3.10;;
68653;SDS011;55636;51.108;13.622;2022-07-06T04:37:52;4.03;;;2.90;;
68653;SDS011;55636;51.108;13.622;2022-07-06T04:38:55;3.42;;;2.80;;
68653;SDS011;55636;51.108;13.622;2022-07-06T04:39:58;3.40;;;3.10;;
68653;SDS011;55636;51.108;13.622;2022-07-06T04:41:04;3.53;;;3.20;;
68653;SDS011;55636;51.108;13.622;2022-07-06T04:42:07;3.90;;;3.47;;
68653;SDS011;55636;51.108;13.622;2022-07-06T04:43:11;3.20;;;2.90;;
68653;SDS011;55636;51.108;13.622;2022-07-06T04:44:13;4.53;;;3.28;;
68653;SDS011;55636;51.108;13.622;2022-07-06T04:45:16;4.25;;;3.20;;
68653;SDS011;55636;51.108;13.622;2022-07-06T04:46:18;3.80;;;3.45;;
68653;SDS011;55636;51.108;13.622;2022-07-06T04:47:24;3.60;;;3.30;;
68653;SDS011;55636;51.108;13.622;2022-07-06T04:48:27;4.85;;;3.10;;
68653;SDS011;55636;51.108;13.622;2022-07-06T04:49:29;5.93;;;3.20;;
68653;SDS011;55636;51.108;13.622;2022-07-06T04:50:32;3.00;;;2.80;;
68653;SDS011;55636;51.108;13.622;2022-07-06T04:51:43;4.05;;;3.00;;
68653;SDS011;55636;51.108;13.622;2022-07-06T04:52:45;3.90;;;3.33;;
68653;SDS011;55636;51.108;13.622;2022-07-06T04:53:47;3.38;;;3.08;;
68653;SDS011;55636;51.108;13.622;2022-07-06T04:54:50;3.28;;;2.97;;
68653;SDS011;55636;51.108;13.622;2022-07-06T04:55:52;3.35;;;3.05;;
68653;SDS011;55636;51.108;13.622;2022-07-06T04:56:54;3.42;;;3.10;;
68653;SDS011;55636;51.108;13.622;2022-07-06T04:57:59;3.83;;;3.05;;
68653;SDS011;55636;51.108;13.622;2022-07-06T04:59:01;3.55;;;3.22;;
68653;SDS011;55636;51.108;13.622;2022-07-06T05:00:06;5.05;;;3.72;;
68653;SDS011;55636;51.108;13.622;2022-07-06T05:01:09;4.10;;;3.05;;
68653;SDS011;55636;51.108;13.622;2022-07-06T05:02:12;4.38;;;3.40;;
68653;SDS011;55636;51.108;13.622;2022-07-06T05:03:15;3.50;;;2.95;;
68653;SDS011;55636;51.108;13.622;2022-07-06T05:04:17;4.47;;;2.90;;
68653;SDS011;55636;51.108;13.622;2022-07-06T05:05:23;3.75;;;3.05;;
68653;SDS011;55636;51.108;13.622;2022-07-06T05:06:26;3.40;;;2.95;;
68653;SDS011;55636;51.108;13.622;2022-07-06T05:07:28;3.30;;;2.70;;
68653;SDS011;55636;51.108;13.622;2022-07-06T05:08:33;4.53;;;3.00;;
68653;SDS011;55636;51.108;13.622;2022-07-06T05:09:36;3.58;;;3.15;;
68653;SDS011;55636;51.108;13.622;2022-07-06T05:10:39;4.57;;;3.30;;
68653;SDS011;55636;51.108;13.622;2022-07-06T05:11:41;4.20;;;3.00;;
68653;SDS011;55636;51.108;13.622;2022-07-06T05:12:44;6.78;;;3.40;;
68653;SDS011;55636;51.108;13.622;2022-07-06T05:13:48;5.30;;;3.20;;
68653;SDS011;55636;51.108;13.622;2022-07-06T05:14:51;4.28;;;3.28;;
68653;SDS011;55636;51.108;13.622;2022-07-06T05:15:55;5.65;;;2.85;;
68653;SDS011;55636;51.108;13.622;2022-07-06T05:16:58;3.20;;;2.85;;
68653;SDS011;55636;51.108;13.622;2022-07-06T05:18:01;3.92;;;2.67;;
68653;SDS011;55636;51.108;13.622;2022-07-06T05:19:03;3.13;;;2.50;;
68653;SDS011;55636;51.108;13.622;2022-07-06T05:20:06;3.60;;;2.58;;
68653;SDS011;55636;51.108;13.622;2022-07-06T05:21:12;2.60;;;2.40;;
68653;SDS011;55636;51.108;13.622;2022-07-06T05:22:15;2.97;;;2.55;;
68653;SDS011;55636;51.108;13.622;2022-07-06T05:23:17;4.85;;;2.58;;
68653;SDS011;55636;51.108;13.622;2022-07-06T05:24:19;5.07;;;2.70;;
68653;SDS011;55636;51.108;13.622;2022-07-06T05:25:22;3.83;;;2.50;;
68653;SDS011;55636;51.108;13.622;2022-07-06T05:26:24;3.60;;;2.30;;
68653;SDS011;55636;51.108;13.622;2022-07-06T05:27:26;4.05;;;2.33;;
68653;SDS011;55636;51.108;13.622;2022-07-06T05:28:29;3.15;;;2.28;;
68653;SDS011;55636;51.108;13.622;2022-07-06T05:29:38;2.75;;;2.45;;
68653;SDS011;55636;51.108;13.622;2022-07-06T05:30:41;2.95;;;2.30;;
68653;SDS011;55636;51.108;13.622;2022-07-06T05:31:44;3.38;;;2.20;;
68653;SDS011;55636;51.108;13.622;2022-07-06T05:32:46;3.15;;;2.20;;
68653;SDS011;55636;51.108;13.622;2022-07-06T05:33:49;7.10;;;2.40;;
68653;SDS011;55636;51.108;13.622;2022-07-06T05:34:52;3.08;;;2.50;;
68653;SDS011;55636;51.108;13.622;2022-07-06T05:35:55;3.92;;;2.20;;
68653;SDS011;55636;51.108;13.622;2022-07-06T05:37:01;4.72;;;2.47;;
68653;SDS011;55636;51.108;13.622;2022-07-06T05:38:03;2.58;;;2.25;;
68653;SDS011;55636;51.108;13.622;2022-07-06T05:39:06;3.65;;;2.28;;
68653;SDS011;55636;51.108;13.622;2022-07-06T05:40:09;2.75;;;2.45;;
68653;SDS011;55636;51.108;13.622;2022-07-06T05:41:12;2.67;;;2.30;;
68653;SDS011;55636;51.108;13.622;2022-07-06T05:42:14;2.85;;;2.10;;
68653;SDS011;55636;51.108;13.622;2022-07-06T05:43:17;2.50;;;2.17;;
68653;SDS011;55636;51.108;13.622;2022-07-06T05:44:20;2.63;;;2.15;;
68653;SDS011;55636;51.108;13.622;2022-07-06T05:45:23;2.83;;;2.05;;
68653;SDS011;55636;51.108;13.622;2022-07-06T05:46:27;3.47;;;2.40;;
68653;SDS011;55636;51.108;13.622;2022-07-06T05:47:30;4.03;;;2.38;;
68653;SDS011;55636;51.108;13.622;2022-07-06T05:48:51;2.63;;;2.20;;
68653;SDS011;55636;51.108;13.622;2022-07-06T05:50:12;3.17;;;2.40;;
68653;SDS011;55636;51.108;13.622;2022-07-06T05:51:19;3.35;;;2.50;;
68653;SDS011;55636;51.108;13.622;2022-07-06T05:52:22;3.17;;;2.30;;
68653;SDS011;55636;51.108;13.622;2022-07-06T05:53:24;3.95;;;2.20;;
68653;SDS011;55636;51.108;13.622;2022-07-06T05:54:29;4.63;;;2.28;;
68653;SDS011;55636;51.108;13.622;2022-07-06T05:55:33;3.55;;;2.08;;
68653;SDS011;55636;51.108;13.622;2022-07-06T05:56:37;4.07;;;2.50;;
68653;SDS011;55636;51.108;13.622;2022-07-06T05:57:39;3.40;;;2.45;;
68653;SDS011;55636;51.108;13.622;2022-07-06T05:58:43;3.30;;;2.50;;
68653;SDS011;55636;51.108;13.622;2022-07-06T05:59:45;2.75;;;2.30;;
68653;SDS011;55636;51.108;13.622;2022-07-06T06:00:47;4.22;;;2.13;;
68653;SDS011;55636;51.108;13.622;2022-07-06T06:01:53;3.63;;;2.10;;
68653;SDS011;55636;51.108;13.622;2022-07-06T06:02:58;3.53;;;2.10;;
68653;SDS011;55636;51.108;13.622;2022-07-06T06:04:01;4.05;;;2.33;;
68653;SDS011;55636;51.108;13.622;2022-07-06T06:05:04;3.35;;;2.33;;
68653;SDS011;55636;51.108;13.622;2022-07-06T06:06:09;2.47;;;2.00;;
68653;SDS011;55636;51.108;13.622;2022-07-06T06:07:12;2.30;;;1.90;;
68653;SDS011;55636;51.108;13.622;2022-07-06T06:08:14;3.38;;;2.03;;
68653;SDS011;55636;51.108;13.622;2022-07-06T06:09:18;3.30;;;2.25;;
68653;SDS011;55636;51.108;13.622;2022-07-06T06:10:20;4.07;;;2.40;;
68653;SDS011;55636;51.108;13.622;2022-07-06T06:11:29;4.10;;;2.13;;
68653;SDS011;55636;51.108;13.622;2022-07-06T06:12:31;2.25;;;1.90;;
68653;SDS011;55636;51.108;13.622;2022-07-06T06:13:33;2.90;;;1.92;;
68653;SDS011;55636;51.108;13.622;2022-07-06T06:14:36;3.47;;;2.10;;
68653;SDS011;55636;51.108;13.622;2022-07-06T06:15:38;3.08;;;2.08;;
68653;SDS011;55636;51.108;13.622;2022-07-06T06:16:40;6.32;;;1.92;;